createdAt,value
2022-08-12T00:31:30.384Z,4.10
2022-08-12T00:44:48.942Z,4.30
2022-08-12T00:48:02.020Z,3.80
2022-08-12T00:54:17.851Z,4.27
2022-08-12T00:57:58.325Z,3.57
2022-08-12T01:23:57.897Z,4.63
2022-08-12T01:33:26.328Z,4.73
2022-08-12T01:36:21.388Z,4.20
2022-08-12T01:38:56.468Z,4.60
2022-08-12T01:41:35.943Z,4.47
2022-08-12T01:52:22.330Z,4.97
2022-08-12T02:02:23.325Z,5.00
2022-08-12T02:05:33.727Z,5.00
2022-08-12T02:08:59.349Z,4.80
2022-08-12T02:18:35.543Z,4.57
2022-08-12T02:21:19.774Z,4.60
2022-08-12T02:34:46.538Z,5.23
2022-08-12T02:40:50.233Z,5.20
2022-08-12T02:44:57.931Z,5.97
2022-08-12T02:58:33.322Z,5.03
2022-08-12T03:01:32.396Z,5.40
2022-08-12T03:04:04.964Z,5.60
2022-08-12T03:07:09.820Z,5.73
2022-08-12T03:10:07.152Z,4.83
2022-08-12T03:12:54.129Z,5.63
2022-08-12T03:15:25.075Z,5.20
2022-08-12T03:21:55.647Z,5.50
2022-08-12T03:24:27.664Z,5.80
2022-08-12T03:27:00.199Z,6.17
2022-08-12T03:29:51.765Z,6.00
2022-08-12T03:32:45.537Z,4.90
2022-08-12T03:35:36.908Z,5.40
2022-08-12T03:38:18.838Z,5.83
2022-08-12T03:41:58.658Z,5.40
2022-08-12T03:45:17.354Z,5.40
2022-08-12T03:48:21.763Z,5.50
2022-08-12T03:51:11.173Z,5.90
2022-08-12T03:53:59.969Z,5.60
2022-08-12T03:56:49.266Z,5.50
2022-08-12T03:59:35.075Z,5.83
2022-08-12T04:02:14.823Z,5.43
2022-08-12T04:04:45.827Z,5.80
2022-08-12T04:11:04.436Z,5.83
2022-08-12T04:14:08.758Z,6.23
2022-08-12T04:16:37.173Z,5.70
2022-08-12T04:19:08.078Z,6.30
2022-08-12T04:21:36.527Z,7.07
2022-08-12T04:24:15.483Z,6.47
2022-08-12T04:26:47.450Z,6.80
2022-08-12T04:30:31.589Z,7.10
2022-08-12T04:32:24.968Z,6.90
2022-08-12T04:34:52.902Z,7.17
2022-08-12T04:37:26.113Z,7.00
2022-08-12T04:39:54.655Z,6.60
2022-08-12T04:42:22.316Z,6.90
2022-08-12T04:44:52.702Z,6.37
2022-08-12T04:47:23.511Z,6.80
2022-08-12T04:49:50.997Z,6.23
2022-08-12T04:52:34.418Z,6.63
2022-08-12T05:12:21.867Z,5.67
2022-08-12T05:14:59.858Z,5.90
2022-08-12T05:17:35.532Z,6.10
2022-08-12T05:33:00.573Z,4.83
2022-08-12T05:33:00.644Z,5.50
2022-08-12T05:58:40.643Z,5.03
2022-08-12T06:02:18.453Z,5.53
2022-08-12T06:09:30.845Z,4.20
2022-08-12T06:12:36.992Z,4.30
2022-08-12T06:15:05.198Z,4.80
2022-08-12T06:17:37.952Z,4.77
2022-08-12T06:20:26.633Z,4.60
2022-08-12T06:23:03.551Z,4.70
2022-08-12T06:56:00.513Z,4.17
2022-08-12T07:50:04.113Z,4.50
2022-08-12T07:56:18.668Z,4.70
2022-08-12T07:58:48.683Z,3.20
2022-08-12T08:08:02.604Z,3.47
2022-08-12T08:10:38.736Z,3.50
2022-08-12T08:13:09.164Z,3.17
2022-08-12T08:16:01.870Z,3.57
2022-08-12T08:18:59.684Z,3.90
2022-08-12T08:21:56.430Z,3.60
2022-08-12T08:35:58.832Z,3.17
2022-08-12T08:38:32.138Z,3.00
2022-08-12T08:42:17.366Z,3.80
2022-08-12T08:54:34.127Z,2.33
2022-08-12T08:56:03.251Z,3.30
2022-08-12T08:57:10.694Z,2.80
2022-08-12T08:59:43.377Z,2.70
2022-08-12T09:02:36.442Z,2.90
2022-08-12T09:05:11.779Z,2.83
2022-08-12T09:10:47.272Z,2.50
2022-08-12T09:16:20.730Z,3.00
2022-08-12T09:18:52.661Z,2.60
2022-08-12T09:21:23.227Z,2.40
2022-08-12T09:23:59.614Z,2.70
2022-08-12T09:26:31.801Z,2.60
2022-08-12T09:29:11.714Z,2.47
2022-08-12T09:32:02.802Z,2.50
2022-08-12T09:34:36.216Z,2.10
2022-08-12T09:37:20.063Z,2.97
2022-08-12T09:40:01.851Z,1.93
2022-08-12T09:46:06.848Z,2.43
2022-08-12T09:48:35.047Z,2.70
2022-08-12T09:51:04.324Z,2.43
2022-08-12T09:53:38.621Z,2.33
2022-08-12T09:56:58.400Z,2.60
2022-08-12T09:59:01.803Z,3.10
2022-08-12T10:01:35.354Z,3.03
2022-08-12T10:04:19.426Z,3.23
2022-08-12T10:06:54.703Z,2.93
2022-08-12T10:09:28.684Z,3.00
2022-08-12T10:12:33.219Z,2.50
2022-08-12T10:15:02.244Z,2.33
2022-08-12T10:17:29.846Z,2.47
2022-08-12T10:19:59.844Z,2.13
2022-08-12T10:26:35.548Z,2.60
2022-08-12T10:32:21.479Z,2.50
2022-08-12T10:34:53.231Z,2.40
2022-08-12T10:38:38.492Z,2.87
2022-08-12T10:40:19.690Z,2.93
2022-08-12T10:43:08.901Z,2.70
2022-08-12T10:45:38.333Z,2.50
2022-08-12T10:48:21.537Z,1.80
2022-08-12T10:51:01.586Z,2.47
2022-08-12T10:53:44.949Z,1.50
2022-08-12T10:56:18.440Z,1.77
2022-08-12T10:58:47.633Z,1.53
2022-08-12T11:01:50.500Z,1.80
2022-08-12T11:04:22.339Z,1.93
2022-08-12T11:07:09.589Z,1.50
2022-08-12T11:10:01.022Z,1.77
2022-08-12T11:12:55.298Z,1.70
2022-08-12T11:15:32.742Z,1.60
2022-08-12T11:18:12.245Z,1.33
2022-08-12T11:20:45.135Z,1.10
2022-08-12T11:23:25.758Z,1.67
2022-08-12T11:26:02.481Z,1.60
2022-08-12T11:28:35.142Z,1.40
2022-08-12T11:31:09.810Z,1.50
2022-08-12T11:34:05.100Z,1.60
2022-08-12T11:36:26.093Z,1.60
2022-08-12T11:38:53.203Z,1.43
2022-08-12T11:41:28.131Z,1.20
2022-08-12T11:44:36.271Z,1.10
2022-08-12T11:46:52.816Z,1.10
2022-08-12T11:49:31.364Z,1.10
2022-08-12T11:52:00.909Z,1.20
2022-08-12T11:54:29.881Z,1.30
2022-08-12T11:57:02.198Z,1.07
2022-08-12T12:02:20.649Z,1.17
2022-08-12T12:04:52.941Z,1.07
2022-08-12T12:07:22.915Z,1.20
2022-08-12T12:10:15.836Z,1.20
2022-08-12T12:12:50.045Z,1.10
2022-08-12T12:15:25.287Z,1.30
2022-08-12T12:18:05.538Z,1.20
2022-08-12T12:20:34.921Z,1.10
2022-08-12T12:23:01.764Z,1.10
2022-08-12T12:25:59.373Z,1.40
2022-08-12T12:28:36.721Z,1.20
2022-08-12T12:31:04.243Z,1.13
2022-08-12T12:33:57.229Z,1.20
2022-08-12T12:36:24.141Z,1.50
2022-08-12T12:38:54.843Z,1.27
2022-08-12T12:41:21.725Z,1.40
2022-08-12T12:44:08.597Z,1.30
2022-08-12T12:46:40.424Z,1.00
2022-08-12T12:49:15.194Z,1.00
2022-08-12T12:51:50.057Z,1.33
2022-08-12T12:54:29.292Z,1.10
2022-08-12T12:56:56.952Z,1.13
2022-08-12T12:59:55.335Z,0.97
2022-08-12T13:02:11.403Z,0.80
2022-08-12T13:04:38.304Z,0.90
2022-08-12T13:07:06.623Z,0.90
2022-08-12T13:09:36.325Z,0.80
2022-08-12T13:12:08.150Z,0.90
2022-08-12T13:14:35.339Z,0.87
2022-08-12T13:17:08.641Z,0.90
2022-08-12T13:19:44.556Z,0.80
2022-08-12T13:22:18.498Z,0.90
2022-08-12T13:24:55.092Z,1.03
2022-08-12T13:27:35.136Z,1.00
2022-08-12T13:30:11.541Z,1.03
2022-08-12T13:32:40.533Z,0.87
2022-08-12T13:35:19.999Z,0.90
2022-08-12T13:37:56.287Z,0.70
2022-08-12T13:40:24.955Z,0.90
2022-08-12T13:42:57.543Z,0.80
2022-08-12T13:45:29.065Z,0.97
2022-08-12T13:48:03.889Z,0.80
2022-08-12T13:50:33.209Z,1.00
2022-08-12T13:53:23.185Z,0.80
2022-08-12T13:55:59.567Z,0.80
2022-08-12T13:58:34.732Z,1.00
2022-08-12T14:01:06.333Z,0.80
2022-08-12T14:03:50.045Z,1.00
2022-08-12T14:06:19.109Z,0.80
2022-08-12T14:08:49.723Z,0.87
2022-08-12T14:11:18.449Z,0.90
2022-08-12T14:14:03.906Z,1.00
2022-08-12T14:16:46.862Z,0.90
2022-08-12T14:19:18.485Z,0.90
2022-08-12T14:21:59.124Z,1.00
2022-08-12T14:24:30.771Z,0.90
2022-08-12T14:26:58.671Z,0.90
2022-08-12T14:29:57.035Z,0.90
2022-08-12T14:32:16.820Z,1.10
2022-08-12T14:34:46.457Z,1.13
2022-08-12T14:37:55.006Z,1.10
2022-08-12T14:40:09.517Z,1.20
2022-08-12T14:42:36.756Z,1.10
2022-08-12T14:45:09.438Z,1.10
2022-08-12T14:47:58.668Z,1.10
2022-08-12T14:50:58.164Z,1.40
2022-08-12T14:55:38.590Z,1.13
2022-08-12T14:59:23.186Z,1.10
2022-08-12T15:01:55.017Z,1.20
2022-08-12T15:04:29.253Z,1.30
2022-08-12T15:07:00.818Z,1.40
2022-08-12T15:09:30.690Z,1.20
2022-08-12T15:12:05.768Z,1.10
2022-08-12T15:14:55.758Z,1.40
2022-08-12T15:17:44.819Z,1.30
2022-08-12T15:20:37.817Z,1.30
2022-08-12T15:23:18.138Z,1.30
2022-08-12T15:29:32.444Z,1.40
2022-08-12T15:32:17.280Z,1.50
2022-08-12T15:38:31.844Z,1.20
2022-08-12T15:48:16.941Z,1.47
2022-08-12T15:51:05.842Z,1.27
2022-08-12T16:00:39.943Z,1.30
2022-08-12T16:06:36.236Z,1.57
2022-08-12T16:09:04.602Z,1.60
2022-08-12T16:11:52.172Z,1.40
2022-08-12T16:14:19.529Z,1.60
2022-08-12T16:20:12.325Z,1.73
2022-08-12T16:23:04.472Z,1.20
2022-08-12T16:30:38.639Z,1.70
2022-08-12T16:48:34.153Z,1.60
2022-08-12T16:51:11.862Z,1.77
2022-08-12T16:53:46.805Z,1.93
2022-08-12T16:59:54.542Z,2.07
2022-08-12T17:02:31.626Z,2.00
2022-08-12T17:05:04.983Z,2.00
2022-08-12T17:28:58.262Z,1.83
2022-08-12T17:30:57.412Z,2.10
2022-08-12T17:34:38.620Z,1.77
2022-08-12T17:57:16.106Z,2.13
2022-08-12T18:30:42.739Z,2.10
2022-08-12T20:47:46.356Z,2.83
2022-08-12T21:11:56.909Z,2.93
2022-08-12T21:26:18.266Z,3.40
2022-08-12T21:52:40.815Z,3.07
2022-08-12T22:59:27.843Z,4.07
